Back to Top

Language: 

My Weather Underground Personal Weather Station Historical Data with Graphs...

Delerius Weather Station Historical Data
Daily Summary for January 03, 2018 Units:  Metric    English   Both
« Previous Day
Next Day »
Daily Weekly Monthly Yearly Custom
  High: Low: Average:
Temperature: 8.4 °C 6 °C 7.3 °C
Dew Point: 5.7 °C 3.3 °C 4.8 °C
Humidity: 91 % 73 % 85 %
Wind Speed: 48.3 km/h 17.7 km/h 32.8 km/h
Wind Gust: 74 km/h - -
Wind:- - West
Pressure: 994.8 hPa 978.9 hPa -
Precipitation: 4.06 mm    
Historical Graphs
 
 
Tabular Data for January 03, 2018
Time Temperature Dew Point Pressure Wind Wind Speed Wind Gust Humidity Rainfall Rate (Hourly) solar Conditions
00:04 8.4 °C 4.4 °C 980.6 hPa WSW 38.6 km/h 53.1 km/h 76 % 0 mm 0 W/m2
00:05 8.4 °C 4.4 °C 980.6 hPa WSW 38.6 km/h 53.1 km/h 76 % 0 mm 0 W/m2
00:10 8.3 °C 4.3 °C 980.2 hPa West 37 km/h 56.3 km/h 76 % 0 mm 0 W/m2
00:11 8.4 °C 4.4 °C 980.2 hPa West 37 km/h 56.3 km/h 76 % 0 mm 0 W/m2
00:15 8.4 °C 4.4 °C 980.6 hPa West 35.4 km/h 51.5 km/h 76 % 0 mm 0 W/m2
00:20 8.3 °C 4.3 °C 980.6 hPa West 30.6 km/h 41.8 km/h 76 % 0 mm 0 W/m2
00:25 8.4 °C 4.4 °C 980.6 hPa West 35.4 km/h 51.5 km/h 76 % 0 mm 0 W/m2
00:26 8.4 °C 4.4 °C 980.6 hPa West 32.2 km/h 51.5 km/h 76 % 0 mm 0 W/m2
00:35 8.4 °C 4.4 °C 980.6 hPa WSW 27.4 km/h 41.8 km/h 76 % 0 mm 0 W/m2
00:39 8.4 °C 4.2 °C 980.6 hPa WSW 35.4 km/h 56.3 km/h 75 % 0 mm 0 W/m2
00:41 8.4 °C 4.2 °C 980.6 hPa West 30.6 km/h 46.7 km/h 75 % 0 mm 0 W/m2
00:46 8.4 °C 4.4 °C 980.6 hPa West 35.4 km/h 49.9 km/h 76 % 0 mm 0 W/m2
00:48 8.3 °C 4.3 °C 980.2 hPa WSW 37 km/h 56.3 km/h 76 % 0 mm 0 W/m2
00:51 8.2 °C 4.2 °C 980.6 hPa WSW 35.4 km/h 56.3 km/h 76 % 0 mm 0 W/m2
00:56 8.2 °C 4.1 °C 980.2 hPa WSW 38.6 km/h 62.8 km/h 75 % 0 mm 0 W/m2
00:57 8.2 °C 4.1 °C 980.2 hPa West 32.2 km/h 54.7 km/h 75 % 0 mm 0 W/m2
01:02 8.1 °C 3.6 °C 979.9 hPa WSW 48.3 km/h 74 km/h 73 % 0 mm 0 W/m2
01:07 8.1 °C 3.6 °C 979.9 hPa WSW 38.6 km/h 59.5 km/h 73 % 0 mm 0 W/m2
01:10 8.1 °C 3.6 °C 979.2 hPa West 38.6 km/h 64.4 km/h 73 % 0 mm 0 W/m2
01:11 8.1 °C 3.6 °C 979.6 hPa West 37 km/h 54.7 km/h 73 % 0 mm 0 W/m2
01:16 7.9 °C 3.3 °C 979.2 hPa West 35.4 km/h 49.9 km/h 73 % 0 mm 0 W/m2
01:17 7.9 °C 3.3 °C 979.2 hPa West 35.4 km/h 51.5 km/h 73 % 0 mm 0 W/m2
01:19 7.9 °C 3.3 °C 979.2 hPa West 37 km/h 57.9 km/h 73 % 0 mm 0 W/m2
01:24 7.8 °C 3.3 °C 979.2 hPa West 38.6 km/h 54.7 km/h 73 % 0 mm 0 W/m2
01:28 7.8 °C 3.4 °C 979.6 hPa West 32.2 km/h 61.2 km/h 74 % 0 mm 0 W/m2
01:32 7.8 °C 3.4 °C 979.2 hPa West 37 km/h 62.8 km/h 74 % 0 mm 0 W/m2
01:37 7.9 °C 3.7 °C 979.9 hPa West 29 km/h 48.3 km/h 75 % 0 mm 0 W/m2
01:41 7.8 °C 3.8 °C 979.9 hPa West 37 km/h 51.5 km/h 76 % 0 mm 0 W/m2
01:46 7.3 °C 3.9 °C 980.2 hPa WSW 37 km/h 74 km/h 79 % 0 mm 0 W/m2
01:51 6.8 °C 3.6 °C 979.9 hPa WSW 35.4 km/h 53.1 km/h 80 % 0 mm 0 W/m2
01:55 6.6 °C 3.4 °C 979.6 hPa West 33.8 km/h 59.5 km/h 80 % 0 mm 0 W/m2
02:00 6.4 °C 3.4 °C 979.6 hPa West 38.6 km/h 69.2 km/h 81 % 0 mm 0 W/m2
02:01 6.4 °C 3.4 °C 979.6 hPa West 38.6 km/h 69.2 km/h 81 % 0 mm 0 W/m2
02:02 6.4 °C 3.4 °C 979.2 hPa West 37 km/h 64.4 km/h 81 % 0 mm 0 W/m2
02:07 6.5 °C 3.7 °C 979.2 hPa West 41.8 km/h 66 km/h 82 % 0 mm 0 W/m2
02:08 6.5 °C 3.7 °C 979.2 hPa West 38.6 km/h 62.8 km/h 82 % 0 mm 0 W/m2
02:12 6.6 °C 3.6 °C 978.9 hPa West 40.2 km/h 64.4 km/h 81 % 0 mm 0 W/m2
02:14 6.6 °C 3.6 °C 979.2 hPa West 38.6 km/h 59.5 km/h 81 % 0 mm 0 W/m2
02:19 6.7 °C 3.7 °C 979.2 hPa WSW 33.8 km/h 62.8 km/h 81 % 0 mm 0 W/m2
02:22 6.7 °C 3.5 °C 978.9 hPa WSW 38.6 km/h 57.9 km/h 80 % 0 mm 0 W/m2
02:28 6.8 °C 3.6 °C 979.2 hPa West 43.5 km/h 59.5 km/h 80 % 0 mm 0 W/m2
02:34 6.8 °C 3.6 °C 979.2 hPa West 38.6 km/h 61.2 km/h 80 % 0 mm 0 W/m2
02:39 6.8 °C 3.6 °C 979.2 hPa West 33.8 km/h 57.9 km/h 80 % 0 mm 0 W/m2
02:40 6.8 °C 3.6 °C 978.9 hPa West 35.4 km/h 57.9 km/h 80 % 0 mm 0 W/m2
02:44 6.9 °C 3.5 °C 978.9 hPa West 48.3 km/h 72.4 km/h 79 % 0 mm 0 W/m2
02:51 6.8 °C 3.6 °C 979.2 hPa West 40.2 km/h 67.6 km/h 80 % 0 mm 0 W/m2
02:56 6.9 °C 3.5 °C 979.2 hPa West 46.7 km/h 69.2 km/h 79 % 0 mm 0 W/m2
03:01 6.9 °C 3.5 °C 979.2 hPa West 37 km/h 61.2 km/h 79 % 0 mm 0 W/m2
03:02 6.9 °C 3.5 °C 979.2 hPa West 35.4 km/h 53.1 km/h 79 % 0 mm 0 W/m2
03:03 6.9 °C 3.5 °C 979.2 hPa West 38.6 km/h 67.6 km/h 79 % 0 mm 0 W/m2
03:13 6.8 °C 3.6 °C 978.9 hPa West 38.6 km/h 56.3 km/h 80 % 0 mm 0 W/m2
03:14 6.8 °C 3.6 °C 979.2 hPa West 41.8 km/h 64.4 km/h 80 % 0 mm 0 W/m2
03:20 6.7 °C 3.8 °C 978.9 hPa West 35.4 km/h 53.1 km/h 82 % 0 mm 0 W/m2
03:21 6.7 °C 3.8 °C 979.2 hPa West 32.2 km/h 49.9 km/h 82 % 0 mm 0 W/m2
03:26 6.6 °C 3.7 °C 979.2 hPa West 38.6 km/h 54.7 km/h 82 % 0 mm 0 W/m2
03:30 6.6 °C 3.7 °C 979.2 hPa West 33.8 km/h 57.9 km/h 82 % 0 mm 0 W/m2
03:35 6.6 °C 3.7 °C 979.2 hPa West 38.6 km/h 56.3 km/h 82 % 0 mm 0 W/m2
03:40 6.6 °C 3.7 °C 978.9 hPa West 38.6 km/h 57.9 km/h 82 % 0 mm 0 W/m2
03:43 6.6 °C 3.7 °C 978.9 hPa West 40.2 km/h 64.4 km/h 82 % 0 mm 0 W/m2
03:48 6.6 °C 3.9 °C 979.2 hPa West 40.2 km/h 56.3 km/h 83 % 0 mm 0 W/m2
03:49 6.6 °C 3.9 °C 979.2 hPa WSW 38.6 km/h 56.3 km/h 83 % 0 mm 0 W/m2
03:53 6.6 °C 3.9 °C 979.2 hPa West 37 km/h 56.3 km/h 83 % 0 mm 0 W/m2
03:58 6.6 °C 3.7 °C 979.2 hPa West 41.8 km/h 67.6 km/h 82 % 0 mm 0 W/m2
04:03 6.7 °C 3.7 °C 979.6 hPa West 40.2 km/h 61.2 km/h 81 % 0 mm 0 W/m2
04:04 6.7 °C 3.7 °C 979.2 hPa West 35.4 km/h 53.1 km/h 81 % 0 mm 0 W/m2
04:06 6.7 °C 3.8 °C 979.2 hPa West 30.6 km/h 43.5 km/h 82 % 0 mm 0 W/m2
04:10 6.7 °C 3.8 °C 979.2 hPa West 46.7 km/h 66 km/h 82 % 0 mm 0 W/m2
04:13 6.7 °C 3.8 °C 979.6 hPa West 38.6 km/h 56.3 km/h 82 % 0 mm 0 W/m2
04:15 6.7 °C 4 °C 979.6 hPa West 37 km/h 62.8 km/h 83 % 0 mm 0 W/m2
04:19 6.6 °C 3.9 °C 979.6 hPa West 37 km/h 51.5 km/h 83 % 0 mm 0 W/m2
04:23 6.5 °C 4 °C 979.6 hPa West 40.2 km/h 66 km/h 84 % 0 mm 0 W/m2
04:26 6.4 °C 3.9 °C 979.9 hPa West 40.2 km/h 69.2 km/h 84 % 0 mm 0 W/m2
04:31 6.2 °C 3.9 °C 979.9 hPa West 35.4 km/h 49.9 km/h 85 % 0 mm 0 W/m2
04:36 6.1 °C 3.9 °C 979.9 hPa West 35.4 km/h 53.1 km/h 86 % 0 mm 0 W/m2
04:39 6.1 °C 3.9 °C 979.9 hPa West 37 km/h 57.9 km/h 86 % 0 mm 0 W/m2
04:42 6.2 °C 3.9 °C 979.9 hPa West 43.5 km/h 62.8 km/h 85 % 0 mm 0 W/m2
04:47 6.4 °C 3.9 °C 979.9 hPa West 35.4 km/h 66 km/h 84 % 0 mm 0 W/m2
04:53 6.6 °C 3.9 °C 979.9 hPa West 35.4 km/h 59.5 km/h 83 % 0 mm 0 W/m2
04:55 6.7 °C 4 °C 980.2 hPa West 37 km/h 57.9 km/h 83 % 0 mm 0 W/m2
05:00 6.8 °C 4.1 °C 980.2 hPa West 30.6 km/h 53.1 km/h 83 % 0 mm 0 W/m2
05:01 6.8 °C 4.1 °C 980.2 hPa West 35.4 km/h 53.1 km/h 83 % 0 mm 0 W/m2
05:05 6.9 °C 4.1 °C 980.2 hPa West 40.2 km/h 57.9 km/h 82 % 0 mm 0 W/m2
05:10 6.9 °C 4.2 °C 980.2 hPa West 45.1 km/h 67.6 km/h 83 % 0 mm 0 W/m2
05:12 6.9 °C 4.2 °C 980.6 hPa West 41.8 km/h 62.8 km/h 83 % 0 mm 0 W/m2
05:16 6.8 °C 4.1 °C 980.6 hPa West 43.5 km/h 66 km/h 83 % 0 mm 0 W/m2
05:20 6.9 °C 4.2 °C 980.6 hPa West 41.8 km/h 59.5 km/h 83 % 0 mm 0 W/m2
05:23 7 °C 4.3 °C 980.9 hPa West 45.1 km/h 69.2 km/h 83 % 0 mm 0 W/m2
05:28 6.9 °C 4.2 °C 980.9 hPa West 38.6 km/h 59.5 km/h 83 % 0 mm 0 W/m2
05:33 6.9 °C 4.4 °C 981.3 hPa West 38.6 km/h 54.7 km/h 84 % 0 mm 0 W/m2
05:37 6.8 °C 4.3 °C 981.3 hPa West 33.8 km/h 59.5 km/h 84 % 0 mm 0 W/m2
05:38 6.8 °C 4.4 °C 981.3 hPa West 30.6 km/h 48.3 km/h 85 % 0 mm 0 W/m2
05:42 6.8 °C 4.3 °C 981.3 hPa West 35.4 km/h 53.1 km/h 84 % 0 mm 0 W/m2
05:47 7 °C 4.3 °C 981.6 hPa West 43.5 km/h 66 km/h 83 % 0 mm 0 W/m2
05:48 7 °C 4.3 °C 981.6 hPa West 45.1 km/h 61.2 km/h 83 % 0 mm 0 W/m2
05:51 7.1 °C 4.4 °C 981.6 hPa WNW 38.6 km/h 66 km/h 83 % 0 mm 0 W/m2
05:54 7.1 °C 4.2 °C 981.9 hPa West 45.1 km/h 72.4 km/h 82 % 0 mm 0 W/m2
06:01 7.2 °C 4.3 °C 981.9 hPa West 45.1 km/h 74 km/h 82 % 0 mm 0 W/m2
06:06 7.2 °C 4.3 °C 982.3 hPa West 41.8 km/h 66 km/h 82 % 0 mm 0 W/m2
06:11 7.2 °C 4.3 °C 982.3 hPa West 32.2 km/h 53.1 km/h 82 % 0 mm 0 W/m2
06:13 7.2 °C 4.3 °C 982.3 hPa West 33.8 km/h 51.5 km/h 82 % 0 mm 0 W/m2
06:20 7.2 °C 4.3 °C 982.3 hPa West 41.8 km/h 66 km/h 82 % 0 mm 0 W/m2
06:22 7.2 °C 4.2 °C 982.3 hPa WNW 45.1 km/h 70.8 km/h 81 % 0 mm 0 W/m2
06:27 7.2 °C 4.2 °C 982.6 hPa West 41.8 km/h 61.2 km/h 81 % 0 mm 0 W/m2
06:32 7.3 °C 4.1 °C 983 hPa West 38.6 km/h 66 km/h 80 % 0 mm 0 W/m2
06:35 7.3 °C 4.3 °C 983 hPa West 37 km/h 53.1 km/h 81 % 0 mm 0 W/m2
06:40 7.3 °C 4.3 °C 983 hPa West 38.6 km/h 54.7 km/h 81 % 0 mm 0 W/m2
06:41 7.3 °C 4.3 °C 983 hPa West 40.2 km/h 56.3 km/h 81 % 0 mm 0 W/m2
06:46 7.3 °C 4.3 °C 983.3 hPa West 37 km/h 59.5 km/h 81 % 0 mm 0 W/m2
06:51 7.3 °C 4.3 °C 983.3 hPa West 35.4 km/h 57.9 km/h 81 % 0 mm 0 W/m2
06:54 7.2 °C 4.2 °C 983.3 hPa West 38.6 km/h 62.8 km/h 81 % 0 mm 0 W/m2
06:55 7.3 °C 4.1 °C 983 hPa West 41.8 km/h 70.8 km/h 80 % 0 mm 0 W/m2
07:00 7.3 °C 4.1 °C 983.6 hPa West 38.6 km/h 61.2 km/h 80 % 0 mm 0 W/m2
07:05 7.3 °C 4.1 °C 984 hPa WNW 40.2 km/h 53.1 km/h 80 % 0 mm 0 W/m2
07:06 7.4 °C 4.2 °C 983.6 hPa WNW 41.8 km/h 61.2 km/h 80 % 0 mm 0 W/m2
07:08 7.4 °C 4.2 °C 984 hPa West 38.6 km/h 61.2 km/h 80 % 0 mm 0 W/m2
07:13 7.4 °C 4.2 °C 984 hPa West 35.4 km/h 67.6 km/h 80 % 0 mm 0 W/m2
07:18 7.3 °C 4.1 °C 984.3 hPa West 41.8 km/h 59.5 km/h 80 % 0 mm 0 W/m2
07:19 7.4 °C 4.2 °C 984.3 hPa West 38.6 km/h 59.5 km/h 80 % 0 mm 0 W/m2
07:24 7.4 °C 4.2 °C 984.3 hPa WNW 40.2 km/h 59.5 km/h 80 % 0 mm 0 W/m2
07:25 7.4 °C 4.2 °C 984.6 hPa WNW 40.2 km/h 59.5 km/h 80 % 0 mm 0 W/m2
07:30 7.4 °C 4.2 °C 984.6 hPa WNW 37 km/h 57.9 km/h 80 % 0 mm 0 W/m2
07:32 7.4 °C 4.2 °C 984.6 hPa West 38.6 km/h 61.2 km/h 80 % 0 mm 0 W/m2
07:38 7.3 °C 4.6 °C 985 hPa WNW 35.4 km/h 61.2 km/h 83 % 0 mm 0 W/m2
07:41 7.1 °C 4.6 °C 985 hPa West 35.4 km/h 56.3 km/h 84 % 0 mm 0 W/m2
07:48 6.9 °C 4.6 °C 985 hPa WNW 35.4 km/h 64.4 km/h 85 % 0 mm 0 W/m2
07:49 6.8 °C 4.4 °C 985 hPa WNW 32.2 km/h 64.4 km/h 85 % 0 mm 0 W/m2
07:54 6.9 °C 4.6 °C 985 hPa WNW 35.4 km/h 53.1 km/h 85 % 0 mm 0 W/m2
07:55 6.9 °C 4.6 °C 985 hPa WNW 35.4 km/h 53.1 km/h 85 % 0 mm 0 W/m2
08:00 7.1 °C 4.6 °C 985.3 hPa WNW 40.2 km/h 61.2 km/h 84 % 0 mm 0 W/m2
08:01 7.1 °C 4.4 °C 985.3 hPa WNW 37 km/h 59.5 km/h 83 % 0 mm 0 W/m2
08:06 7.3 °C 4.4 °C 985.3 hPa West 33.8 km/h 67.6 km/h 82 % 0 mm 0 W/m2
08:11 7.4 °C 4.5 °C 985.7 hPa West 38.6 km/h 57.9 km/h 82 % 0 mm 0 W/m2
08:16 7.3 °C 4.4 °C 985.7 hPa West 40.2 km/h 61.2 km/h 82 % 0 mm 0 W/m2
08:21 7.3 °C 4.4 °C 986 hPa West 37 km/h 56.3 km/h 82 % 0 mm 0 W/m2
08:25 7.3 °C 4.4 °C 986 hPa WNW 32.2 km/h 48.3 km/h 82 % 0 mm 0 W/m2
08:34 7.3 °C 4.3 °C 986.3 hPa West 41.8 km/h 67.6 km/h 81 % 0 mm 5 W/m2
08:36 7.4 °C 4.3 °C 986.3 hPa West 38.6 km/h 56.3 km/h 81 % 0 mm 7 W/m2
08:40 7.4 °C 4.3 °C 986.3 hPa West 45.1 km/h 69.2 km/h 81 % 0 mm 5 W/m2
08:43 7.5 °C 4.3 °C 986.3 hPa West 40.2 km/h 61.2 km/h 80 % 0 mm 5 W/m2
08:48 7.6 °C 4.4 °C 986.7 hPa West 41.8 km/h 66 km/h 80 % 0 mm 5 W/m2
08:53 7.6 °C 4.6 °C 986.7 hPa WNW 40.2 km/h 59.5 km/h 81 % 0 mm 5 W/m2
08:56 7.6 °C 4.6 °C 987 hPa WNW 32.2 km/h 48.3 km/h 81 % 0 mm 5 W/m2
09:01 7.4 °C 4.7 °C 987 hPa WNW 38.6 km/h 59.5 km/h 83 % 0 mm 12 W/m2
09:02 7.4 °C 4.9 °C 987 hPa WNW 29 km/h 49.9 km/h 84 % 0 mm 7 W/m2
09:04 7.3 °C 4.8 °C 987.4 hPa WNW 30.6 km/h 48.3 km/h 84 % 0 mm 11 W/m2
09:09 7.2 °C 4.8 °C 987.4 hPa West 29 km/h 45.1 km/h 85 % 0 mm 16 W/m2
09:10 7.2 °C 5 °C 987.4 hPa WNW 30.6 km/h 49.9 km/h 86 % 0.25 mm 21 W/m2
09:18 7.1 °C 5.1 °C 987.7 hPa WNW 32.2 km/h 48.3 km/h 87 % 0.25 mm 26 W/m2
09:23 7.1 °C 5.1 °C 988 hPa WNW 29 km/h 56.3 km/h 87 % 0.25 mm 18 W/m2
09:28 7.2 °C 5 °C 988 hPa WNW 29 km/h 45.1 km/h 86 % 0.25 mm 21 W/m2
09:29 7.2 °C 5 °C 988 hPa WNW 29 km/h 48.3 km/h 86 % 0.25 mm 25 W/m2
09:33 7.3 °C 4.9 °C 988 hPa WNW 32.2 km/h 46.7 km/h 85 % 0.25 mm 32 W/m2
09:35 7.3 °C 4.9 °C 988 hPa WNW 33.8 km/h 48.3 km/h 85 % 0.25 mm 19 W/m2
09:40 7.4 °C 5.1 °C 988.4 hPa WNW 32.2 km/h 53.1 km/h 85 % 0.25 mm 16 W/m2
09:42 7.3 °C 5.1 °C 988.4 hPa WNW 33.8 km/h 53.1 km/h 86 % 0.25 mm 26 W/m2
09:47 7.2 °C 5.2 °C 988.4 hPa WNW 25.7 km/h 37 km/h 87 % 0.25 mm 49 W/m2
09:52 7.1 °C 5.2 °C 988.4 hPa WNW 30.6 km/h 49.9 km/h 88 % 0.25 mm 72 W/m2
09:54 7.1 °C 5.2 °C 988.4 hPa West 30.6 km/h 57.9 km/h 88 % 0.25 mm 46 W/m2
09:59 7.2 °C 5.3 °C 988.4 hPa WNW 32.2 km/h 53.1 km/h 88 % 0.25 mm 83 W/m2
10:03 7.2 °C 5.3 °C 988.4 hPa WNW 30.6 km/h 51.5 km/h 88 % 0.25 mm 83 W/m2
10:08 7.3 °C 5.4 °C 988.4 hPa WNW 37 km/h 51.5 km/h 88 % 0.25 mm 72 W/m2
10:10 7.3 °C 5.3 °C 988.7 hPa WNW 33.8 km/h 51.5 km/h 87 % 0 mm 104 W/m2
10:15 7.3 °C 5.3 °C 988.7 hPa WNW 40.2 km/h 69.2 km/h 87 % 0 mm 81 W/m2
10:20 7.3 °C 5.4 °C 988.7 hPa WNW 40.2 km/h 59.5 km/h 88 % 0.25 mm 69 W/m2
10:21 7.3 °C 5.4 °C 989.1 hPa WNW 41.8 km/h 61.2 km/h 88 % 0.25 mm 81 W/m2
10:30 7.2 °C 5.5 °C 989.1 hPa West 37 km/h 56.3 km/h 89 % 0.51 mm 47 W/m2
10:33 7.1 °C 5.2 °C 989.4 hPa WNW 38.6 km/h 56.3 km/h 88 % 0.51 mm 37 W/m2
10:35 7.2 °C 5.3 °C 989.4 hPa WNW 38.6 km/h 59.5 km/h 88 % 0.51 mm 35 W/m2
10:40 7.2 °C 5.3 °C 989.4 hPa West 32.2 km/h 48.3 km/h 88 % 0.51 mm 42 W/m2
10:41 7.3 °C 5.3 °C 989.4 hPa West 29 km/h 48.3 km/h 87 % 0.51 mm 60 W/m2
10:43 7.3 °C 5.3 °C 989.4 hPa West 30.6 km/h 43.5 km/h 87 % 0.51 mm 70 W/m2
10:46 7.3 °C 5.3 °C 989.4 hPa West 37 km/h 56.3 km/h 87 % 0.51 mm 39 W/m2
10:50 7.4 °C 5.2 °C 989.4 hPa WNW 41.8 km/h 66 km/h 86 % 0.51 mm 47 W/m2
10:55 7.5 °C 5.3 °C 989.7 hPa West 38.6 km/h 61.2 km/h 86 % 0.51 mm 81 W/m2
10:56 7.5 °C 5.2 °C 989.7 hPa West 38.6 km/h 61.2 km/h 85 % 0.51 mm 91 W/m2
11:01 7.6 °C 5.2 °C 989.7 hPa WNW 38.6 km/h 62.8 km/h 85 % 0.51 mm 97 W/m2
11:03 7.6 °C 5.2 °C 989.7 hPa WNW 38.6 km/h 59.5 km/h 85 % 0.51 mm 220 W/m2
11:06 7.7 °C 5.3 °C 989.7 hPa West 37 km/h 54.7 km/h 85 % 0.51 mm 250 W/m2
11:09 7.9 °C 5.6 °C 989.7 hPa West 41.8 km/h 64.4 km/h 85 % 0.51 mm 279 W/m2
11:14 8.2 °C 5.5 °C 989.7 hPa WNW 45.1 km/h 64.4 km/h 83 % 0.51 mm 230 W/m2
11:15 8.2 °C 5.5 °C 989.7 hPa WNW 43.5 km/h 64.4 km/h 83 % 0.51 mm 230 W/m2
11:18 8.3 °C 5.6 °C 989.7 hPa West 33.8 km/h 57.9 km/h 83 % 0.51 mm 100 W/m2
11:22 8.2 °C 5.1 °C 989.7 hPa West 40.2 km/h 57.9 km/h 81 % 0.25 mm 39 W/m2
11:27 8.1 °C 5.2 °C 990.1 hPa West 38.6 km/h 56.3 km/h 82 % 0.25 mm 109 W/m2
11:31 8 °C 5.3 °C 989.7 hPa WNW 37 km/h 48.3 km/h 83 % 0.25 mm 69 W/m2
11:36 7.7 °C 5.2 °C 989.7 hPa West 30.6 km/h 48.3 km/h 84 % 0.25 mm 62 W/m2
11:37 7.7 °C 5.2 °C 989.7 hPa West 35.4 km/h 48.3 km/h 84 % 0.25 mm 62 W/m2
11:42 7.6 °C 5.2 °C 990.1 hPa West 37 km/h 54.7 km/h 85 % 0.25 mm 90 W/m2
11:47 7.4 °C 5.2 °C 990.1 hPa West 40.2 km/h 56.3 km/h 86 % 0.25 mm 113 W/m2
11:50 7.4 °C 5.2 °C 990.1 hPa WNW 38.6 km/h 67.6 km/h 86 % 0.51 mm 125 W/m2
11:53 7.5 °C 5.3 °C 990.1 hPa WNW 38.6 km/h 51.5 km/h 86 % 0.51 mm 42 W/m2
11:56 7.5 °C 5.3 °C 990.1 hPa WNW 37 km/h 54.7 km/h 86 % 0.51 mm 42 W/m2
11:58 7.5 °C 5.2 °C 990.1 hPa West 38.6 km/h 61.2 km/h 85 % 0.51 mm 65 W/m2
12:01 7.6 °C 5.2 °C 990.1 hPa West 37 km/h 54.7 km/h 85 % 0.25 mm 98 W/m2
12:03 7.6 °C 5.2 °C 990.4 hPa West 35.4 km/h 49.9 km/h 85 % 0.25 mm 93 W/m2
12:08 7.6 °C 5.2 °C 990.7 hPa West 37 km/h 57.9 km/h 85 % 0.25 mm 167 W/m2
12:09 7.6 °C 5.2 °C 990.7 hPa West 40.2 km/h 59.5 km/h 85 % 0.25 mm 260 W/m2
12:12 7.7 °C 5.3 °C 990.7 hPa West 40.2 km/h 57.9 km/h 85 % 0.25 mm 132 W/m2
12:14 7.8 °C 5.3 °C 990.7 hPa West 38.6 km/h 62.8 km/h 84 % 0.25 mm 90 W/m2
12:19 7.8 °C 5.3 °C 991.1 hPa West 38.6 km/h 62.8 km/h 84 % 0.25 mm 76 W/m2
12:20 7.8 °C 5.3 °C 991.1 hPa West 38.6 km/h 62.8 km/h 84 % 0.25 mm 77 W/m2
12:25 7.9 °C 5.4 °C 991.4 hPa WNW 37 km/h 56.3 km/h 84 % 0.25 mm 46 W/m2
12:27 7.9 °C 5.2 °C 991.4 hPa West 37 km/h 54.7 km/h 83 % 0.25 mm 46 W/m2
12:35 7.9 °C 5.2 °C 991.8 hPa West 32.2 km/h 56.3 km/h 83 % 0.25 mm 84 W/m2
12:40 7.9 °C 5.2 °C 992.1 hPa West 33.8 km/h 51.5 km/h 83 % 0.25 mm 105 W/m2
12:44 8.1 °C 5.2 °C 992.1 hPa West 35.4 km/h 51.5 km/h 82 % 0.25 mm 163 W/m2
12:49 8.2 °C 5.1 °C 992.1 hPa West 37 km/h 54.7 km/h 81 % 0 mm 33 W/m2
12:50 8.2 °C 4.9 °C 992.1 hPa WNW 32.2 km/h 51.5 km/h 80 % 0 mm 33 W/m2
12:55 8.2 °C 4.9 °C 992.1 hPa West 35.4 km/h 48.3 km/h 80 % 0 mm 32 W/m2
13:00 8.2 °C 4.9 °C 992.4 hPa West 29 km/h 45.1 km/h 80 % 0 mm 54 W/m2
13:05 8.2 °C 4.9 °C 992.4 hPa West 27.4 km/h 43.5 km/h 80 % 0 mm 60 W/m2
13:10 8.2 °C 4.9 °C 992.4 hPa West 33.8 km/h 48.3 km/h 80 % 0 mm 72 W/m2
13:16 8.2 °C 5.1 °C 992.8 hPa West 33.8 km/h 54.7 km/h 81 % 0 mm 65 W/m2
13:18 8.2 °C 5.3 °C 992.8 hPa West 30.6 km/h 48.3 km/h 82 % 0 mm 33 W/m2
13:19 8.2 °C 5.3 °C 992.8 hPa West 32.2 km/h 48.3 km/h 82 % 0 mm 26 W/m2
13:26 7.6 °C 5.1 °C 992.8 hPa West 37 km/h 56.3 km/h 84 % 0.25 mm 16 W/m2
13:31 7.2 °C 5 °C 993.5 hPa West 33.8 km/h 57.9 km/h 86 % 0.51 mm 16 W/m2
13:36 6.7 °C 4.7 °C 993.1 hPa West 33.8 km/h 53.1 km/h 87 % 0.76 mm 7 W/m2
13:41 6.3 °C 4.4 °C 992.8 hPa West 25.7 km/h 43.5 km/h 88 % 1.02 mm 33 W/m2
13:46 6.1 °C 4.4 °C 992.8 hPa West 25.7 km/h 40.2 km/h 89 % 1.27 mm 23 W/m2
13:49 6 °C 4.5 °C 992.8 hPa West 27.4 km/h 43.5 km/h 90 % 1.27 mm 21 W/m2
13:54 6.2 °C 4.8 °C 992.8 hPa West 25.7 km/h 40.2 km/h 91 % 1.27 mm 18 W/m2
13:55 6.3 °C 4.9 °C 992.8 hPa West 24.1 km/h 40.2 km/h 91 % 1.27 mm 18 W/m2
13:56 6.3 °C 4.9 °C 992.8 hPa West 22.5 km/h 43.5 km/h 91 % 1.27 mm 19 W/m2
14:01 6.3 °C 4.9 °C 993.1 hPa West 24.1 km/h 40.2 km/h 91 % 1.27 mm 18 W/m2
14:02 6.3 °C 4.9 °C 993.1 hPa West 25.7 km/h 40.2 km/h 91 % 1.27 mm 18 W/m2
14:03 6.3 °C 4.9 °C 992.8 hPa West 27.4 km/h 41.8 km/h 91 % 1.52 mm 54 W/m2
14:08 6.5 °C 5 °C 993.1 hPa West 24.1 km/h 38.6 km/h 90 % 1.52 mm 60 W/m2
14:09 6.6 °C 5.1 °C 993.1 hPa West 22.5 km/h 38.6 km/h 90 % 1.52 mm 60 W/m2
14:12 6.7 °C 5.2 °C 993.1 hPa West 33.8 km/h 51.5 km/h 90 % 1.52 mm 47 W/m2
14:15 6.8 °C 5.3 °C 993.1 hPa West 20.9 km/h 35.4 km/h 90 % 1.52 mm 40 W/m2
14:20 6.9 °C 5.2 °C 993.1 hPa West 25.7 km/h 37 km/h 89 % 1.52 mm 69 W/m2
14:21 6.9 °C 5.2 °C 993.1 hPa West 25.7 km/h 37 km/h 89 % 1.52 mm 56 W/m2
14:25 7.1 °C 5.4 °C 993.1 hPa West 20.9 km/h 32.2 km/h 89 % 1.27 mm 37 W/m2
14:26 7.1 °C 5.2 °C 993.1 hPa West 22.5 km/h 32.2 km/h 88 % 1.27 mm 42 W/m2
14:31 7.1 °C 5.2 °C 993.1 hPa West 24.1 km/h 38.6 km/h 88 % 1.02 mm 56 W/m2
14:36 7.1 °C 5.2 °C 993.1 hPa West 24.1 km/h 43.5 km/h 88 % 0.51 mm 44 W/m2
14:42 7.2 °C 5.3 °C 992.8 hPa West 30.6 km/h 51.5 km/h 88 % 0.51 mm 30 W/m2
14:47 7.2 °C 5.3 °C 993.1 hPa West 32.2 km/h 51.5 km/h 88 % 0.25 mm 51 W/m2
14:52 7.3 °C 5.3 °C 992.8 hPa WSW 29 km/h 43.5 km/h 87 % 0.25 mm 47 W/m2
14:57 7.3 °C 5.3 °C 992.8 hPa West 22.5 km/h 35.4 km/h 87 % 0.25 mm 14 W/m2
14:58 7.3 °C 5.3 °C 992.8 hPa West 27.4 km/h 46.7 km/h 87 % 0.25 mm 14 W/m2
15:03 7.4 °C 5.2 °C 992.8 hPa West 33.8 km/h 53.1 km/h 86 % 0 mm 14 W/m2
15:05 7.4 °C 5.2 °C 992.8 hPa West 32.2 km/h 53.1 km/h 86 % 0 mm 14 W/m2
15:06 7.4 °C 5.2 °C 992.8 hPa West 25.7 km/h 38.6 km/h 86 % 0 mm 12 W/m2
15:11 7.3 °C 5.1 °C 993.1 hPa West 33.8 km/h 49.9 km/h 86 % 0 mm 16 W/m2
15:15 7.2 °C 5.2 °C 992.8 hPa West 32.2 km/h 51.5 km/h 87 % 0 mm 9 W/m2
15:16 7.1 °C 5.1 °C 992.8 hPa West 29 km/h 51.5 km/h 87 % 0 mm 9 W/m2
15:20 7 °C 5.2 °C 993.1 hPa West 29 km/h 41.8 km/h 88 % 0 mm 9 W/m2
15:24 6.9 °C 5.2 °C 992.8 hPa West 29 km/h 43.5 km/h 89 % 0 mm 9 W/m2
15:28 6.9 °C 5.2 °C 993.1 hPa West 27.4 km/h 49.9 km/h 89 % 0 mm 7 W/m2
15:33 6.9 °C 5.2 °C 993.1 hPa West 29 km/h 51.5 km/h 89 % 0 mm 7 W/m2
15:36 7 °C 5.3 °C 993.1 hPa West 32.2 km/h 48.3 km/h 89 % 0.25 mm 5 W/m2
15:41 7.1 °C 5.4 °C 993.1 hPa West 30.6 km/h 43.5 km/h 89 % 0.25 mm 7 W/m2
15:42 7.1 °C 5.4 °C 993.1 hPa West 30.6 km/h 45.1 km/h 89 % 0.25 mm 7 W/m2
15:47 7.2 °C 5.3 °C 993.1 hPa West 37 km/h 59.5 km/h 88 % 0.25 mm 5 W/m2
15:48 7.2 °C 5.3 °C 993.1 hPa West 37 km/h 59.5 km/h 88 % 0.25 mm 5 W/m2
15:51 7.3 °C 5.4 °C 993.1 hPa West 37 km/h 57.9 km/h 88 % 0.25 mm 0 W/m2
15:56 7.3 °C 5.3 °C 993.1 hPa West 29 km/h 53.1 km/h 87 % 0.25 mm 5 W/m2
16:00 7.2 °C 5.3 °C 993.1 hPa West 33.8 km/h 51.5 km/h 88 % 0.25 mm 0 W/m2
16:01 7.2 °C 5.3 °C 993.1 hPa West 35.4 km/h 53.1 km/h 88 % 0.25 mm 0 W/m2
16:06 7.2 °C 5.3 °C 993.1 hPa West 37 km/h 61.2 km/h 88 % 0.25 mm 0 W/m2
16:11 7.2 °C 5.5 °C 992.8 hPa West 30.6 km/h 53.1 km/h 89 % 0.25 mm 0 W/m2
16:13 7.2 °C 5.5 °C 992.8 hPa West 35.4 km/h 48.3 km/h 89 % 0.25 mm 0 W/m2
16:18 7.3 °C 5.4 °C 992.8 hPa West 30.6 km/h 45.1 km/h 88 % 0.25 mm 0 W/m2
16:23 7.3 °C 5.4 °C 992.8 hPa West 35.4 km/h 53.1 km/h 88 % 0.51 mm 0 W/m2
16:24 7.3 °C 5.4 °C 992.8 hPa West 35.4 km/h 53.1 km/h 88 % 0.51 mm 0 W/m2
16:28 7.3 °C 5.4 °C 993.1 hPa West 33.8 km/h 61.2 km/h 88 % 0.51 mm 0 W/m2
16:30 7.3 °C 5.4 °C 993.1 hPa West 33.8 km/h 54.7 km/h 88 % 0.51 mm 0 W/m2
16:35 7.5 °C 5.3 °C 993.1 hPa West 38.6 km/h 53.1 km/h 86 % 0.25 mm 0 W/m2
16:40 7.6 °C 5.2 °C 993.5 hPa West 33.8 km/h 49.9 km/h 85 % 0.25 mm 0 W/m2
16:41 7.7 °C 5.3 °C 993.5 hPa West 35.4 km/h 49.9 km/h 85 % 0.25 mm 0 W/m2
16:42 7.7 °C 5.3 °C 993.5 hPa West 37 km/h 54.7 km/h 85 % 0.25 mm 0 W/m2
16:46 7.8 °C 5.3 °C 993.5 hPa WSW 38.6 km/h 53.1 km/h 84 % 0.25 mm 0 W/m2
16:54 7.8 °C 5.3 °C 993.5 hPa West 32.2 km/h 49.9 km/h 84 % 0.25 mm 0 W/m2
16:59 7.6 °C 5.4 °C 993.8 hPa WSW 29 km/h 51.5 km/h 86 % 0.25 mm 0 W/m2
17:04 7.3 °C 5.3 °C 993.5 hPa WSW 29 km/h 48.3 km/h 87 % 0.25 mm 0 W/m2
17:06 7.3 °C 5.3 °C 993.8 hPa WSW 29 km/h 51.5 km/h 87 % 0.25 mm 0 W/m2
17:11 7.3 °C 5.3 °C 993.8 hPa West 25.7 km/h 41.8 km/h 87 % 0.25 mm 0 W/m2
17:12 7.3 °C 5.3 °C 993.8 hPa WSW 27.4 km/h 48.3 km/h 87 % 0.25 mm 0 W/m2
17:14 7.3 °C 5.3 °C 993.8 hPa WSW 33.8 km/h 48.3 km/h 87 % 0.25 mm 0 W/m2
17:19 7.4 °C 5.2 °C 993.8 hPa West 35.4 km/h 54.7 km/h 86 % 0.25 mm 0 W/m2
17:20 7.4 °C 5.2 °C 993.8 hPa West 29 km/h 46.7 km/h 86 % 0.25 mm 0 W/m2
17:23 7.4 °C 5.2 °C 994.1 hPa WSW 30.6 km/h 45.1 km/h 86 % 0 mm 0 W/m2
17:27 7.4 °C 5.2 °C 994.1 hPa West 30.6 km/h 48.3 km/h 86 % 0 mm 0 W/m2
17:29 7.4 °C 5.2 °C 993.8 hPa West 33.8 km/h 48.3 km/h 86 % 0 mm 0 W/m2
17:32 7.4 °C 5.2 °C 993.8 hPa WSW 30.6 km/h 48.3 km/h 86 % 0 mm 0 W/m2
17:37 7.4 °C 5.2 °C 994.1 hPa West 30.6 km/h 40.2 km/h 86 % 0 mm 0 W/m2
17:38 7.4 °C 5.2 °C 994.1 hPa West 32.2 km/h 46.7 km/h 86 % 0 mm 0 W/m2
17:43 7.6 °C 5.2 °C 994.1 hPa West 30.6 km/h 43.5 km/h 85 % 0 mm 0 W/m2
17:44 7.6 °C 5.2 °C 993.8 hPa West 30.6 km/h 43.5 km/h 85 % 0 mm 0 W/m2
17:49 7.7 °C 5.2 °C 994.1 hPa WSW 27.4 km/h 41.8 km/h 84 % 0 mm 0 W/m2
17:50 7.7 °C 5.2 °C 994.1 hPa WSW 24.1 km/h 41.8 km/h 84 % 0 mm 0 W/m2
17:56 7.6 °C 5.2 °C 994.1 hPa West 22.5 km/h 37 km/h 85 % 0 mm 0 W/m2
18:00 7.5 °C 5.2 °C 994.1 hPa West 24.1 km/h 37 km/h 85 % 0 mm 0 W/m2
18:02 7.4 °C 5.2 °C 994.1 hPa WSW 30.6 km/h 45.1 km/h 86 % 0 mm 0 W/m2
18:05 7.4 °C 5.2 °C 994.1 hPa West 25.7 km/h 41.8 km/h 86 % 0 mm 0 W/m2
18:09 7.3 °C 5.3 °C 994.1 hPa West 30.6 km/h 41.8 km/h 87 % 0 mm 0 W/m2
18:12 7.3 °C 5.3 °C 994.1 hPa WSW 25.7 km/h 41.8 km/h 87 % 0 mm 0 W/m2
18:15 7.3 °C 5.3 °C 994.1 hPa West 25.7 km/h 38.6 km/h 87 % 0 mm 0 W/m2
18:20 7.4 °C 5.4 °C 994.1 hPa West 29 km/h 45.1 km/h 87 % 0 mm 0 W/m2
18:22 7.5 °C 5.3 °C 994.1 hPa WSW 35.4 km/h 51.5 km/h 86 % 0 mm 0 W/m2
18:27 7.6 °C 5.2 °C 994.5 hPa West 30.6 km/h 53.1 km/h 85 % 0 mm 0 W/m2
18:28 7.6 °C 5.2 °C 994.1 hPa West 32.2 km/h 53.1 km/h 85 % 0 mm 0 W/m2
18:34 7.7 °C 5.3 °C 994.1 hPa West 25.7 km/h 45.1 km/h 85 % 0 mm 0 W/m2
18:37 7.7 °C 5.2 °C 994.5 hPa West 32.2 km/h 54.7 km/h 84 % 0 mm 0 W/m2
18:42 7.8 °C 5.3 °C 994.5 hPa West 29 km/h 51.5 km/h 84 % 0 mm 0 W/m2
18:45 7.7 °C 5.3 °C 994.5 hPa WSW 30.6 km/h 45.1 km/h 85 % 0 mm 0 W/m2
18:50 7.7 °C 5.3 °C 994.5 hPa West 25.7 km/h 40.2 km/h 85 % 0 mm 0 W/m2
18:56 7.5 °C 5.3 °C 994.5 hPa West 27.4 km/h 40.2 km/h 86 % 0 mm 0 W/m2
18:57 7.5 °C 5.3 °C 994.5 hPa WSW 27.4 km/h 40.2 km/h 86 % 0 mm 0 W/m2
19:02 7.4 °C 5.4 °C 994.5 hPa WSW 20.9 km/h 29 km/h 87 % 0 mm 0 W/m2
19:06 7.3 °C 5.4 °C 994.5 hPa West 25.7 km/h 37 km/h 88 % 0 mm 0 W/m2
19:08 7.3 °C 5.4 °C 994.5 hPa WSW 24.1 km/h 38.6 km/h 88 % 0 mm 0 W/m2
19:13 7.3 °C 5.3 °C 994.5 hPa WSW 24.1 km/h 38.6 km/h 87 % 0 mm 0 W/m2
19:14 7.3 °C 5.3 °C 994.5 hPa WSW 22.5 km/h 38.6 km/h 87 % 0 mm 0 W/m2
19:19 7.4 °C 5.4 °C 994.5 hPa WSW 29 km/h 40.2 km/h 87 % 0 mm 0 W/m2
19:22 7.5 °C 5.3 °C 994.5 hPa WSW 25.7 km/h 35.4 km/h 86 % 0 mm 0 W/m2
19:27 7.5 °C 5.3 °C 994.5 hPa West 29 km/h 41.8 km/h 86 % 0 mm 0 W/m2
19:29 7.5 °C 5.3 °C 994.5 hPa WSW 22.5 km/h 33.8 km/h 86 % 0 mm 0 W/m2
19:34 7.4 °C 5.4 °C 994.5 hPa West 27.4 km/h 48.3 km/h 87 % 0.25 mm 0 W/m2
19:35 7.4 °C 5.4 °C 994.5 hPa West 29 km/h 48.3 km/h 87 % 0.25 mm 0 W/m2
19:39 7.3 °C 5.3 °C 994.5 hPa West 22.5 km/h 33.8 km/h 87 % 0.25 mm 0 W/m2
19:44 7.3 °C 5.4 °C 994.5 hPa West 22.5 km/h 37 km/h 88 % 0.25 mm 0 W/m2
19:46 7.2 °C 5.5 °C 994.5 hPa West 24.1 km/h 41.8 km/h 89 % 0.51 mm 0 W/m2
19:51 7.1 °C 5.4 °C 994.8 hPa West 22.5 km/h 35.4 km/h 89 % 0.51 mm 0 W/m2
19:53 7.1 °C 5.6 °C 994.8 hPa West 17.7 km/h 30.6 km/h 90 % 0.51 mm 0 W/m2
19:58 7 °C 5.4 °C 994.8 hPa West 19.3 km/h 29 km/h 90 % 0.51 mm 0 W/m2
20:00 7 °C 5.4 °C 994.8 hPa West 20.9 km/h 33.8 km/h 90 % 0.51 mm 0 W/m2
20:05 7.1 °C 5.6 °C 994.5 hPa West 20.9 km/h 37 km/h 90 % 0.51 mm 0 W/m2
20:06 7.1 °C 5.6 °C 994.5 hPa West 24.1 km/h 37 km/h 90 % 0.51 mm 0 W/m2
20:15 7.2 °C 5.5 °C 994.5 hPa West 22.5 km/h 35.4 km/h 89 % 0.51 mm 0 W/m2
20:17 7.2 °C 5.5 °C 994.5 hPa West 20.9 km/h 32.2 km/h 89 % 0.51 mm 0 W/m2
20:23 7.2 °C 5.5 °C 994.5 hPa WSW 19.3 km/h 35.4 km/h 89 % 0.51 mm 0 W/m2
20:28 7.2 °C 5.7 °C 994.1 hPa West 20.9 km/h 30.6 km/h 90 % 0.76 mm 0 W/m2
20:30 7.1 °C 5.6 °C 994.5 hPa West 22.5 km/h 35.4 km/h 90 % 0.76 mm 0 W/m2
20:33 7.1 °C 5.6 °C 994.1 hPa West 25.7 km/h 33.8 km/h 90 % 0.51 mm 0 W/m2
20:35 7.1 °C 5.6 °C 994.1 hPa West 27.4 km/h 43.5 km/h 90 % 0.51 mm 0 W/m2
20:40 7.1 °C 5.6 °C 994.1 hPa WSW 25.7 km/h 37 km/h 90 % 0.51 mm 0 W/m2
20:42 7.1 °C 5.6 °C 994.1 hPa West 24.1 km/h 37 km/h 90 % 0.51 mm 0 W/m2
20:47 7.1 °C 5.6 °C 994.1 hPa West 24.1 km/h 43.5 km/h 90 % 0.51 mm 0 W/m2
20:48 7.1 °C 5.6 °C 994.1 hPa West 24.1 km/h 43.5 km/h 90 % 0.51 mm 0 W/m2
20:53 7 °C 5.4 °C 994.1 hPa WSW 22.5 km/h 40.2 km/h 90 % 0.51 mm 0 W/m2
20:55 7 °C 5.4 °C 994.1 hPa West 20.9 km/h 40.2 km/h 90 % 0.51 mm 0 W/m2
20:56 7 °C 5.6 °C 994.1 hPa West 24.1 km/h 38.6 km/h 91 % 0.51 mm 0 W/m2
21:01 7 °C 5.4 °C 994.1 hPa West 27.4 km/h 37 km/h 90 % 0.51 mm 0 W/m2
21:03 7.1 °C 5.6 °C 994.1 hPa West 24.1 km/h 38.6 km/h 90 % 0.51 mm 0 W/m2
21:08 7.1 °C 5.6 °C 994.1 hPa West 24.1 km/h 37 km/h 90 % 0.51 mm 0 W/m2
21:13 7.1 °C 5.6 °C 994.1 hPa West 29 km/h 45.1 km/h 90 % 0.51 mm 0 W/m2
21:18 7.1 °C 5.6 °C 994.1 hPa West 30.6 km/h 48.3 km/h 90 % 0.51 mm 0 W/m2
21:24 7.1 °C 5.6 °C 993.8 hPa WSW 35.4 km/h 53.1 km/h 90 % 0.51 mm 0 W/m2
21:29 7.2 °C 5.5 °C 993.8 hPa WSW 30.6 km/h 45.1 km/h 89 % 0.25 mm 0 W/m2
21:30 7.2 °C 5.5 °C 993.8 hPa WSW 27.4 km/h 45.1 km/h 89 % 0.25 mm 0 W/m2
21:35 7.2 °C 5.5 °C 993.8 hPa West 37 km/h 51.5 km/h 89 % 0.25 mm 0 W/m2
21:40 7.2 °C 5.5 °C 994.1 hPa WSW 30.6 km/h 49.9 km/h 89 % 0.25 mm 0 W/m2
21:45 7.2 °C 5.5 °C 994.1 hPa West 27.4 km/h 43.5 km/h 89 % 0.25 mm 0 W/m2
21:49 7.2 °C 5.5 °C 994.1 hPa West 30.6 km/h 43.5 km/h 89 % 0 mm 0 W/m2
21:51 7.2 °C 5.5 °C 994.5 hPa West 29 km/h 46.7 km/h 89 % 0 mm 0 W/m2
21:56 7.2 °C 5.5 °C 994.1 hPa West 25.7 km/h 40.2 km/h 89 % 0 mm 0 W/m2
21:58 7.1 °C 5.4 °C 994.1 hPa West 27.4 km/h 45.1 km/h 89 % 0 mm 0 W/m2
22:02 7.2 °C 5.5 °C 994.1 hPa West 30.6 km/h 46.7 km/h 89 % 0 mm 0 W/m2
22:07 7.2 °C 5.3 °C 994.1 hPa WSW 24.1 km/h 37 km/h 88 % 0 mm 0 W/m2
22:08 7.2 °C 5.3 °C 994.1 hPa WSW 27.4 km/h 37 km/h 88 % 0 mm 0 W/m2
22:12 7.3 °C 5.4 °C 994.5 hPa West 29 km/h 43.5 km/h 88 % 0 mm 0 W/m2
22:14 7.2 °C 5.3 °C 994.5 hPa WSW 25.7 km/h 40.2 km/h 88 % 0 mm 0 W/m2
22:18 7.2 °C 5.5 °C 994.8 hPa West 27.4 km/h 40.2 km/h 89 % 0 mm 0 W/m2
22:22 7.1 °C 5.6 °C 994.5 hPa West 24.1 km/h 35.4 km/h 90 % 0 mm 0 W/m2
22:27 7.1 °C 5.6 °C 994.5 hPa West 25.7 km/h 41.8 km/h 90 % 0 mm 0 W/m2
22:32 7.1 °C 5.6 °C 994.8 hPa West 25.7 km/h 40.2 km/h 90 % 0 mm 0 W/m2
22:33 7.1 °C 5.6 °C 994.8 hPa West 25.7 km/h 40.2 km/h 90 % 0 mm 0 W/m2
22:34 7.1 °C 5.6 °C 994.8 hPa West 20.9 km/h 37 km/h 90 % 0 mm 0 W/m2
22:39 7.1 °C 5.6 °C 994.8 hPa West 24.1 km/h 38.6 km/h 90 % 0 mm 0 W/m2
22:40 7.1 °C 5.6 °C 994.8 hPa West 24.1 km/h 35.4 km/h 90 % 0 mm 0 W/m2
22:44 7.2 °C 5.7 °C 994.8 hPa West 25.7 km/h 40.2 km/h 90 % 0 mm 0 W/m2
22:49 7.3 °C 5.6 °C 994.8 hPa West 20.9 km/h 37 km/h 89 % 0.25 mm 0 W/m2
22:50 7.3 °C 5.6 °C 994.8 hPa West 22.5 km/h 37 km/h 89 % 0.25 mm 0 W/m2
22:55 7.3 °C 5.6 °C 994.8 hPa West 22.5 km/h 35.4 km/h 89 % 0.25 mm 0 W/m2
23:01 7.3 °C 5.4 °C 994.5 hPa West 24.1 km/h 37 km/h 88 % 0.25 mm 0 W/m2
23:03 7.3 °C 5.4 °C 994.5 hPa West 20.9 km/h 35.4 km/h 88 % 0.25 mm 0 W/m2
23:07 7.2 °C 5.3 °C 994.5 hPa West 20.9 km/h 37 km/h 88 % 0.25 mm 0 W/m2
23:08 7.2 °C 5.3 °C 994.5 hPa West 20.9 km/h 37 km/h 88 % 0.25 mm 0 W/m2
23:13 7.1 °C 5.4 °C 994.5 hPa West 25.7 km/h 41.8 km/h 89 % 0.25 mm 0 W/m2
23:14 7.1 °C 5.4 °C 994.5 hPa West 24.1 km/h 41.8 km/h 89 % 0.25 mm 0 W/m2
23:20 7.2 °C 5.5 °C 994.5 hPa West 29 km/h 51.5 km/h 89 % 0.25 mm 0 W/m2
23:23 7.2 °C 5.5 °C 994.5 hPa West 29 km/h 48.3 km/h 89 % 0.25 mm 0 W/m2
23:26 7.3 °C 5.6 °C 994.5 hPa West 25.7 km/h 40.2 km/h 89 % 0.25 mm 0 W/m2
23:30 7.3 °C 5.6 °C 994.1 hPa West 29 km/h 49.9 km/h 89 % 0.25 mm 0 W/m2
23:33 7.3 °C 5.6 °C 994.1 hPa West 25.7 km/h 35.4 km/h 89 % 0.25 mm 0 W/m2
23:37 7.3 °C 5.4 °C 994.1 hPa West 24.1 km/h 35.4 km/h 88 % 0.25 mm 0 W/m2
23:39 7.2 °C 5.3 °C 994.1 hPa West 22.5 km/h 37 km/h 88 % 0.25 mm 0 W/m2
23:42 7.2 °C 5.3 °C 994.1 hPa West 20.9 km/h 33.8 km/h 88 % 0.25 mm 0 W/m2
23:46 7.2 °C 5.3 °C 994.1 hPa West 27.4 km/h 40.2 km/h 88 % 0 mm 0 W/m2
23:48 7.2 °C 5.3 °C 994.1 hPa West 29 km/h 45.1 km/h 88 % 0 mm 0 W/m2
Delerius-Weather
Compliments of Weather Underground - 3 mb

Data updates at regular intervals.